sensor_id;sensor_type;location;lat;lon;timestamp;temperature;humidity
8888;DHT22;4480;52.370;9.748;2023-03-01T00:02:22;-1.30;99.90
8888;DHT22;4480;52.370;9.748;2023-03-01T00:04:49;-1.30;99.90
8888;DHT22;4480;52.370;9.748;2023-03-01T00:07:16;-1.30;99.90
8888;DHT22;4480;52.370;9.748;2023-03-01T00:09:42;-1.30;99.90
8888;DHT22;4480;52.370;9.748;2023-03-01T00:12:11;-1.30;99.90
8888;DHT22;4480;52.370;9.748;2023-03-01T00:14:38;-1.30;99.90
8888;DHT22;4480;52.370;9.748;2023-03-01T00:17:05;-1.30;99.90
8888;DHT22;4480;52.370;9.748;2023-03-01T00:19:33;-1.40;99.90
8888;DHT22;4480;52.370;9.748;2023-03-01T00:21:59;-1.40;99.90
8888;DHT22;4480;52.370;9.748;2023-03-01T00:24:26;-1.40;99.90
8888;DHT22;4480;52.370;9.748;2023-03-01T00:26:53;-1.40;99.90
8888;DHT22;4480;52.370;9.748;2023-03-01T00:29:22;-1.40;99.90
8888;DHT22;4480;52.370;9.748;2023-03-01T00:31:49;-1.40;99.90
8888;DHT22;4480;52.370;9.748;2023-03-01T00:34:15;-1.40;99.90
8888;DHT22;4480;52.370;9.748;2023-03-01T00:36:44;-1.50;99.90
8888;DHT22;4480;52.370;9.748;2023-03-01T00:39:12;-1.50;99.90
8888;DHT22;4480;52.370;9.748;2023-03-01T00:41:39;-1.50;99.90
8888;DHT22;4480;52.370;9.748;2023-03-01T00:44:06;-1.50;99.90
8888;DHT22;4480;52.370;9.748;2023-03-01T00:46:33;-1.60;99.90
8888;DHT22;4480;52.370;9.748;2023-03-01T00:49:00;-1.60;99.90
8888;DHT22;4480;52.370;9.748;2023-03-01T00:51:28;-1.60;99.90
8888;DHT22;4480;52.370;9.748;2023-03-01T00:53:59;-1.60;99.90
8888;DHT22;4480;52.370;9.748;2023-03-01T00:56:26;-1.60;99.90
8888;DHT22;4480;52.370;9.748;2023-03-01T00:58:53;-1.60;99.90
8888;DHT22;4480;52.370;9.748;2023-03-01T01:01:21;-1.60;99.90
8888;DHT22;4480;52.370;9.748;2023-03-01T01:03:51;-1.60;99.90
8888;DHT22;4480;52.370;9.748;2023-03-01T01:06:20;-1.60;99.90
8888;DHT22;4480;52.370;9.748;2023-03-01T01:08:47;-1.60;99.90
8888;DHT22;4480;52.370;9.748;2023-03-01T01:11:16;-1.60;99.90
8888;DHT22;4480;52.370;9.748;2023-03-01T01:13:44;-1.70;99.90
8888;DHT22;4480;52.370;9.748;2023-03-01T01:16:11;-1.70;99.90
8888;DHT22;4480;52.370;9.748;2023-03-01T01:18:37;-1.70;99.90
8888;DHT22;4480;52.370;9.748;2023-03-01T01:21:06;-1.70;99.90
8888;DHT22;4480;52.370;9.748;2023-03-01T01:23:33;-1.70;99.90
8888;DHT22;4480;52.370;9.748;2023-03-01T01:26:04;-1.80;99.90
8888;DHT22;4480;52.370;9.748;2023-03-01T01:28:32;-1.80;99.90
8888;DHT22;4480;52.370;9.748;2023-03-01T01:30:59;-1.80;99.90
8888;DHT22;4480;52.370;9.748;2023-03-01T01:33:26;-1.80;99.90
8888;DHT22;4480;52.370;9.748;2023-03-01T01:35:53;-1.90;99.90
8888;DHT22;4480;52.370;9.748;2023-03-01T01:38:21;-1.90;99.90
8888;DHT22;4480;52.370;9.748;2023-03-01T01:40:49;-1.90;99.90
8888;DHT22;4480;52.370;9.748;2023-03-01T01:43:22;-2.00;99.90
8888;DHT22;4480;52.370;9.748;2023-03-01T01:45:51;-2.00;99.90
8888;DHT22;4480;52.370;9.748;2023-03-01T01:48:21;-2.00;99.90
8888;DHT22;4480;52.370;9.748;2023-03-01T01:50:53;-2.10;99.90
8888;DHT22;4480;52.370;9.748;2023-03-01T01:53:21;-2.10;99.90
8888;DHT22;4480;52.370;9.748;2023-03-01T01:55:52;-2.10;99.90
8888;DHT22;4480;52.370;9.748;2023-03-01T01:58:20;-2.10;99.90
8888;DHT22;4480;52.370;9.748;2023-03-01T02:00:48;-2.10;99.90
8888;DHT22;4480;52.370;9.748;2023-03-01T02:03:22;-2.10;99.90
8888;DHT22;4480;52.370;9.748;2023-03-01T02:05:58;-2.10;99.90
8888;DHT22;4480;52.370;9.748;2023-03-01T02:08:30;-2.10;99.90
8888;DHT22;4480;52.370;9.748;2023-03-01T02:10:59;-2.10;99.90
8888;DHT22;4480;52.370;9.748;2023-03-01T02:13:30;-2.10;99.90
8888;DHT22;4480;52.370;9.748;2023-03-01T02:15:57;-2.10;99.90
8888;DHT22;4480;52.370;9.748;2023-03-01T02:18:25;-2.10;99.90
8888;DHT22;4480;52.370;9.748;2023-03-01T02:21:05;-2.10;99.90
8888;DHT22;4480;52.370;9.748;2023-03-01T02:23:36;-2.10;99.90
8888;DHT22;4480;52.370;9.748;2023-03-01T02:26:07;-2.10;99.90
8888;DHT22;4480;52.370;9.748;2023-03-01T02:28:39;-2.10;99.90
8888;DHT22;4480;52.370;9.748;2023-03-01T02:31:08;-2.20;99.90
8888;DHT22;4480;52.370;9.748;2023-03-01T02:33:53;-2.20;99.90
8888;DHT22;4480;52.370;9.748;2023-03-01T02:36:22;-2.10;99.90
8888;DHT22;4480;52.370;9.748;2023-03-01T02:38:53;-2.20;99.90
8888;DHT22;4480;52.370;9.748;2023-03-01T02:41:23;-2.20;99.90
8888;DHT22;4480;52.370;9.748;2023-03-01T02:43:52;-2.20;99.90
8888;DHT22;4480;52.370;9.748;2023-03-01T02:46:21;-2.20;99.90
8888;DHT22;4480;52.370;9.748;2023-03-01T02:48:50;-2.20;99.90
8888;DHT22;4480;52.370;9.748;2023-03-01T02:51:40;-2.20;99.90
8888;DHT22;4480;52.370;9.748;2023-03-01T02:54:17;-2.20;99.90
8888;DHT22;4480;52.370;9.748;2023-03-01T02:56:46;-2.20;99.90
8888;DHT22;4480;52.370;9.748;2023-03-01T02:59:17;-2.30;99.90
8888;DHT22;4480;52.370;9.748;2023-03-01T03:01:44;-2.30;99.90
8888;DHT22;4480;52.370;9.748;2023-03-01T03:04:14;-2.30;99.90
8888;DHT22;4480;52.370;9.748;2023-03-01T03:06:42;-2.30;99.90
8888;DHT22;4480;52.370;9.748;2023-03-01T03:09:09;-2.30;99.90
8888;DHT22;4480;52.370;9.748;2023-03-01T03:11:36;-2.30;99.90
8888;DHT22;4480;52.370;9.748;2023-03-01T03:14:04;-2.30;99.90
8888;DHT22;4480;52.370;9.748;2023-03-01T03:16:32;-2.30;99.90
8888;DHT22;4480;52.370;9.748;2023-03-01T03:18:59;-2.30;99.90
8888;DHT22;4480;52.370;9.748;2023-03-01T03:21:30;-2.30;99.90
8888;DHT22;4480;52.370;9.748;2023-03-01T03:23:57;-2.30;99.90
8888;DHT22;4480;52.370;9.748;2023-03-01T03:26:24;-2.40;99.90
8888;DHT22;4480;52.370;9.748;2023-03-01T03:28:51;-2.40;99.90
8888;DHT22;4480;52.370;9.748;2023-03-01T03:31:17;-2.40;99.90
8888;DHT22;4480;52.370;9.748;2023-03-01T03:33:45;-2.40;99.90
8888;DHT22;4480;52.370;9.748;2023-03-01T03:36:15;-2.40;99.90
8888;DHT22;4480;52.370;9.748;2023-03-01T03:38:43;-2.40;99.90
8888;DHT22;4480;52.370;9.748;2023-03-01T03:41:10;-2.50;99.90
8888;DHT22;4480;52.370;9.748;2023-03-01T03:43:38;-2.50;99.90
8888;DHT22;4480;52.370;9.748;2023-03-01T03:46:06;-2.50;99.90
8888;DHT22;4480;52.370;9.748;2023-03-01T03:48:33;-2.50;99.90
8888;DHT22;4480;52.370;9.748;2023-03-01T03:51:01;-2.50;99.90
8888;DHT22;4480;52.370;9.748;2023-03-01T03:53:31;-2.50;99.90
8888;DHT22;4480;52.370;9.748;2023-03-01T03:55:58;-2.60;99.90
8888;DHT22;4480;52.370;9.748;2023-03-01T03:58:25;-2.60;99.90
8888;DHT22;4480;52.370;9.748;2023-03-01T04:00:54;-2.60;99.90
8888;DHT22;4480;52.370;9.748;2023-03-01T04:03:22;-2.60;99.90
8888;DHT22;4480;52.370;9.748;2023-03-01T04:05:50;-2.60;99.90
8888;DHT22;4480;52.370;9.748;2023-03-01T04:11:16;-2.70;99.90
8888;DHT22;4480;52.370;9.748;2023-03-01T04:13:56;-2.70;99.90
8888;DHT22;4480;52.370;9.748;2023-03-01T04:16:24;-2.70;99.90
8888;DHT22;4480;52.370;9.748;2023-03-01T04:18:51;-2.70;99.90
8888;DHT22;4480;52.370;9.748;2023-03-01T04:21:19;-2.70;99.90
8888;DHT22;4480;52.370;9.748;2023-03-01T04:23:45;-2.70;99.90
8888;DHT22;4480;52.370;9.748;2023-03-01T04:26:12;-2.70;99.90
8888;DHT22;4480;52.370;9.748;2023-03-01T04:28:42;-2.70;99.90
8888;DHT22;4480;52.370;9.748;2023-03-01T04:31:12;-2.70;99.90
8888;DHT22;4480;52.370;9.748;2023-03-01T04:33:42;-2.70;99.90
8888;DHT22;4480;52.370;9.748;2023-03-01T04:36:10;-2.70;99.90
8888;DHT22;4480;52.370;9.748;2023-03-01T04:38:37;-2.80;99.90
8888;DHT22;4480;52.370;9.748;2023-03-01T04:41:04;-2.80;99.90
8888;DHT22;4480;52.370;9.748;2023-03-01T04:43:31;-2.80;99.90
8888;DHT22;4480;52.370;9.748;2023-03-01T04:46:05;-2.80;99.90
8888;DHT22;4480;52.370;9.748;2023-03-01T04:48:34;-2.80;99.90
8888;DHT22;4480;52.370;9.748;2023-03-01T04:51:02;-2.80;99.90
8888;DHT22;4480;52.370;9.748;2023-03-01T04:53:29;-2.80;99.90
8888;DHT22;4480;52.370;9.748;2023-03-01T04:55:56;-2.80;99.90
8888;DHT22;4480;52.370;9.748;2023-03-01T04:58:23;-2.80;99.90
8888;DHT22;4480;52.370;9.748;2023-03-01T05:00:50;-2.80;99.90
8888;DHT22;4480;52.370;9.748;2023-03-01T05:03:18;-2.80;99.90
8888;DHT22;4480;52.370;9.748;2023-03-01T05:05:47;-2.80;99.90
8888;DHT22;4480;52.370;9.748;2023-03-01T05:08:14;-2.80;99.90
8888;DHT22;4480;52.370;9.748;2023-03-01T05:10:45;-2.90;99.90
8888;DHT22;4480;52.370;9.748;2023-03-01T05:13:13;-2.80;99.90
8888;DHT22;4480;52.370;9.748;2023-03-01T05:15:46;-2.80;99.90
8888;DHT22;4480;52.370;9.748;2023-03-01T05:18:14;-2.90;99.90
8888;DHT22;4480;52.370;9.748;2023-03-01T05:20:42;-2.90;99.90
8888;DHT22;4480;52.370;9.748;2023-03-01T05:23:10;-2.90;99.90
8888;DHT22;4480;52.370;9.748;2023-03-01T05:25:37;-3.00;99.90
8888;DHT22;4480;52.370;9.748;2023-03-01T05:28:06;-3.00;99.90
8888;DHT22;4480;52.370;9.748;2023-03-01T05:30:35;-3.00;99.90
8888;DHT22;4480;52.370;9.748;2023-03-01T05:33:04;-3.00;99.90
8888;DHT22;4480;52.370;9.748;2023-03-01T05:35:36;-3.00;99.90
8888;DHT22;4480;52.370;9.748;2023-03-01T05:38:04;-3.00;99.90
8888;DHT22;4480;52.370;9.748;2023-03-01T05:40:33;-3.00;99.90
8888;DHT22;4480;52.370;9.748;2023-03-01T05:43:00;-3.00;99.90
8888;DHT22;4480;52.370;9.748;2023-03-01T05:45:27;-3.00;99.90
8888;DHT22;4480;52.370;9.748;2023-03-01T05:47:54;-3.00;99.90
8888;DHT22;4480;52.370;9.748;2023-03-01T05:50:24;-3.10;99.90
8888;DHT22;4480;52.370;9.748;2023-03-01T05:52:56;-3.10;99.90
8888;DHT22;4480;52.370;9.748;2023-03-01T05:55:25;-3.10;99.90
8888;DHT22;4480;52.370;9.748;2023-03-01T05:57:52;-3.00;99.90
8888;DHT22;4480;52.370;9.748;2023-03-01T06:00:21;-3.00;99.90
8888;DHT22;4480;52.370;9.748;2023-03-01T06:02:48;-3.00;99.90
8888;DHT22;4480;52.370;9.748;2023-03-01T06:05:15;-3.00;99.90
8888;DHT22;4480;52.370;9.748;2023-03-01T06:07:42;-3.00;99.90
8888;DHT22;4480;52.370;9.748;2023-03-01T06:10:11;-3.10;99.90
8888;DHT22;4480;52.370;9.748;2023-03-01T06:12:41;-3.00;99.90
8888;DHT22;4480;52.370;9.748;2023-03-01T06:15:10;-3.10;99.90
8888;DHT22;4480;52.370;9.748;2023-03-01T06:17:39;-3.10;99.90
8888;DHT22;4480;52.370;9.748;2023-03-01T06:20:08;-3.00;99.90
8888;DHT22;4480;52.370;9.748;2023-03-01T06:22:36;-3.00;99.90
8888;DHT22;4480;52.370;9.748;2023-03-01T06:25:03;-2.90;99.90
8888;DHT22;4480;52.370;9.748;2023-03-01T06:27:30;-2.80;99.90
8888;DHT22;4480;52.370;9.748;2023-03-01T06:29:58;-2.80;99.90
8888;DHT22;4480;52.370;9.748;2023-03-01T06:32:25;-2.70;99.90
8888;DHT22;4480;52.370;9.748;2023-03-01T06:34:52;-2.70;99.90
8888;DHT22;4480;52.370;9.748;2023-03-01T06:37:19;-2.70;99.90
8888;DHT22;4480;52.370;9.748;2023-03-01T06:39:45;-2.70;99.90
8888;DHT22;4480;52.370;9.748;2023-03-01T06:42:12;-2.70;99.90
8888;DHT22;4480;52.370;9.748;2023-03-01T06:44:39;-2.60;99.90
8888;DHT22;4480;52.370;9.748;2023-03-01T06:47:07;-2.60;99.90
8888;DHT22;4480;52.370;9.748;2023-03-01T06:49:34;-2.60;99.90
8888;DHT22;4480;52.370;9.748;2023-03-01T06:52:00;-2.50;99.90
8888;DHT22;4480;52.370;9.748;2023-03-01T06:54:28;-2.50;99.90
8888;DHT22;4480;52.370;9.748;2023-03-01T06:56:55;-2.50;99.90
8888;DHT22;4480;52.370;9.748;2023-03-01T06:59:22;-2.40;99.90
8888;DHT22;4480;52.370;9.748;2023-03-01T07:01:48;-2.30;99.90
8888;DHT22;4480;52.370;9.748;2023-03-01T07:04:16;-2.30;99.90
8888;DHT22;4480;52.370;9.748;2023-03-01T07:06:43;-2.20;99.90
8888;DHT22;4480;52.370;9.748;2023-03-01T07:09:10;-2.10;99.90
8888;DHT22;4480;52.370;9.748;2023-03-01T07:11:37;-2.00;99.90
8888;DHT22;4480;52.370;9.748;2023-03-01T07:14:03;-1.90;99.90
8888;DHT22;4480;52.370;9.748;2023-03-01T07:16:31;-1.80;99.90
8888;DHT22;4480;52.370;9.748;2023-03-01T07:18:58;-1.60;99.90
8888;DHT22;4480;52.370;9.748;2023-03-01T07:21:26;-1.50;99.90
8888;DHT22;4480;52.370;9.748;2023-03-01T07:23:53;-1.30;99.90
8888;DHT22;4480;52.370;9.748;2023-03-01T07:26:19;-1.20;99.90
8888;DHT22;4480;52.370;9.748;2023-03-01T07:28:46;-1.00;99.90
8888;DHT22;4480;52.370;9.748;2023-03-01T07:31:13;-0.80;99.90
8888;DHT22;4480;52.370;9.748;2023-03-01T07:33:40;-0.60;99.90
8888;DHT22;4480;52.370;9.748;2023-03-01T07:36:07;-0.50;99.90
8888;DHT22;4480;52.370;9.748;2023-03-01T07:38:35;-0.30;99.90
8888;DHT22;4480;52.370;9.748;2023-03-01T07:41:03;-0.20;99.90
8888;DHT22;4480;52.370;9.748;2023-03-01T07:43:31;-0.10;99.90
8888;DHT22;4480;52.370;9.748;2023-03-01T07:45:58;0.00;99.90
8888;DHT22;4480;52.370;9.748;2023-03-01T07:48:25;0.10;99.90
8888;DHT22;4480;52.370;9.748;2023-03-01T07:50:52;0.30;99.90
8888;DHT22;4480;52.370;9.748;2023-03-01T07:53:19;0.40;99.90
8888;DHT22;4480;52.370;9.748;2023-03-01T07:55:47;0.50;99.90
8888;DHT22;4480;52.370;9.748;2023-03-01T07:58:14;0.60;99.90
8888;DHT22;4480;52.370;9.748;2023-03-01T08:00:41;0.70;99.90
8888;DHT22;4480;52.370;9.748;2023-03-01T08:03:07;0.70;99.90
8888;DHT22;4480;52.370;9.748;2023-03-01T08:05:34;0.80;99.90
8888;DHT22;4480;52.370;9.748;2023-03-01T08:08:01;0.70;99.90
8888;DHT22;4480;52.370;9.748;2023-03-01T08:10:28;0.70;99.90
8888;DHT22;4480;52.370;9.748;2023-03-01T08:12:56;0.60;99.90
8888;DHT22;4480;52.370;9.748;2023-03-01T08:15:22;0.60;99.90
8888;DHT22;4480;52.370;9.748;2023-03-01T08:17:49;0.60;99.90
8888;DHT22;4480;52.370;9.748;2023-03-01T08:20:16;0.60;99.90
8888;DHT22;4480;52.370;9.748;2023-03-01T08:22:43;0.70;99.90
8888;DHT22;4480;52.370;9.748;2023-03-01T08:25:10;0.80;99.90
8888;DHT22;4480;52.370;9.748;2023-03-01T08:27:37;0.80;99.90
8888;DHT22;4480;52.370;9.748;2023-03-01T08:30:06;0.90;99.90
8888;DHT22;4480;52.370;9.748;2023-03-01T08:32:36;0.90;99.90
8888;DHT22;4480;52.370;9.748;2023-03-01T08:35:04;0.90;99.90
8888;DHT22;4480;52.370;9.748;2023-03-01T08:37:30;1.10;99.90
8888;DHT22;4480;52.370;9.748;2023-03-01T08:39:58;1.30;99.90
8888;DHT22;4480;52.370;9.748;2023-03-01T08:42:25;1.40;99.90
8888;DHT22;4480;52.370;9.748;2023-03-01T08:44:52;1.60;99.90
8888;DHT22;4480;52.370;9.748;2023-03-01T08:47:20;1.70;99.90
8888;DHT22;4480;52.370;9.748;2023-03-01T08:49:48;1.80;99.40
8888;DHT22;4480;52.370;9.748;2023-03-01T08:52:15;1.90;98.80
8888;DHT22;4480;52.370;9.748;2023-03-01T08:54:42;2.00;98.20
8888;DHT22;4480;52.370;9.748;2023-03-01T08:57:08;2.10;97.70
8888;DHT22;4480;52.370;9.748;2023-03-01T08:59:35;2.20;97.40
8888;DHT22;4480;52.370;9.748;2023-03-01T09:02:03;2.30;97.00
8888;DHT22;4480;52.370;9.748;2023-03-01T09:04:31;2.30;96.60
8888;DHT22;4480;52.370;9.748;2023-03-01T09:06:58;2.50;96.30
8888;DHT22;4480;52.370;9.748;2023-03-01T09:09:25;2.60;95.70
8888;DHT22;4480;52.370;9.748;2023-03-01T09:11:52;2.60;95.10
8888;DHT22;4480;52.370;9.748;2023-03-01T09:14:19;2.70;94.90
8888;DHT22;4480;52.370;9.748;2023-03-01T09:16:46;2.80;94.30
8888;DHT22;4480;52.370;9.748;2023-03-01T09:19:13;2.90;93.80
8888;DHT22;4480;52.370;9.748;2023-03-01T09:21:42;3.00;93.20
8888;DHT22;4480;52.370;9.748;2023-03-01T09:24:19;3.10;92.50
8888;DHT22;4480;52.370;9.748;2023-03-01T09:26:46;3.20;91.40
8888;DHT22;4480;52.370;9.748;2023-03-01T09:29:14;3.20;90.70
8888;DHT22;4480;52.370;9.748;2023-03-01T09:31:42;3.20;90.20
8888;DHT22;4480;52.370;9.748;2023-03-01T09:34:09;3.20;88.90
8888;DHT22;4480;52.370;9.748;2023-03-01T09:36:36;3.20;87.10
8888;DHT22;4480;52.370;9.748;2023-03-01T09:39:04;3.20;86.10
8888;DHT22;4480;52.370;9.748;2023-03-01T09:41:45;3.30;85.00
8888;DHT22;4480;52.370;9.748;2023-03-01T09:44:21;3.40;84.10
8888;DHT22;4480;52.370;9.748;2023-03-01T09:46:50;3.50;83.40
8888;DHT22;4480;52.370;9.748;2023-03-01T09:49:21;3.60;82.00
8888;DHT22;4480;52.370;9.748;2023-03-01T09:51:57;3.70;80.20
8888;DHT22;4480;52.370;9.748;2023-03-01T09:54:25;3.90;78.70
8888;DHT22;4480;52.370;9.748;2023-03-01T09:57:01;3.90;76.40
8888;DHT22;4480;52.370;9.748;2023-03-01T09:59:37;3.90;74.80
8888;DHT22;4480;52.370;9.748;2023-03-01T10:02:21;3.90;73.70
8888;DHT22;4480;52.370;9.748;2023-03-01T10:04:49;4.00;73.80
8888;DHT22;4480;52.370;9.748;2023-03-01T10:07:27;4.00;71.70
8888;DHT22;4480;52.370;9.748;2023-03-01T10:09:56;4.10;70.60
8888;DHT22;4480;52.370;9.748;2023-03-01T10:12:27;4.10;70.20
8888;DHT22;4480;52.370;9.748;2023-03-01T10:14:59;4.20;69.00
8888;DHT22;4480;52.370;9.748;2023-03-01T10:17:33;4.20;67.20
8888;DHT22;4480;52.370;9.748;2023-03-01T10:20:17;4.10;66.50
8888;DHT22;4480;52.370;9.748;2023-03-01T10:22:44;4.20;66.80
8888;DHT22;4480;52.370;9.748;2023-03-01T10:25:23;4.30;66.50
8888;DHT22;4480;52.370;9.748;2023-03-01T10:28:01;4.40;65.70
8888;DHT22;4480;52.370;9.748;2023-03-01T10:30:34;4.50;65.30
8888;DHT22;4480;52.370;9.748;2023-03-01T10:33:16;4.60;64.70
8888;DHT22;4480;52.370;9.748;2023-03-01T10:35:44;4.60;64.20
8888;DHT22;4480;52.370;9.748;2023-03-01T10:38:12;4.60;64.10
8888;DHT22;4480;52.370;9.748;2023-03-01T10:40:53;4.70;63.80
8888;DHT22;4480;52.370;9.748;2023-03-01T10:43:20;4.80;63.50
8888;DHT22;4480;52.370;9.748;2023-03-01T10:45:48;4.90;62.70
8888;DHT22;4480;52.370;9.748;2023-03-01T10:48:17;4.90;62.10
8888;DHT22;4480;52.370;9.748;2023-03-01T10:50:45;4.90;61.40
8888;DHT22;4480;52.370;9.748;2023-03-01T10:53:23;4.90;61.10
8888;DHT22;4480;52.370;9.748;2023-03-01T10:55:59;5.00;60.80
8888;DHT22;4480;52.370;9.748;2023-03-01T10:58:27;5.10;60.30
8888;DHT22;4480;52.370;9.748;2023-03-01T11:00:56;5.30;60.10
8888;DHT22;4480;52.370;9.748;2023-03-01T11:03:24;5.50;59.70
8888;DHT22;4480;52.370;9.748;2023-03-01T11:06:20;5.60;58.90
8888;DHT22;4480;52.370;9.748;2023-03-01T11:08:48;5.60;58.10
8888;DHT22;4480;52.370;9.748;2023-03-01T11:11:22;5.50;57.80
8888;DHT22;4480;52.370;9.748;2023-03-01T11:13:58;5.50;57.90
8888;DHT22;4480;52.370;9.748;2023-03-01T11:16:29;5.50;57.90
8888;DHT22;4480;52.370;9.748;2023-03-01T11:18:59;5.60;58.00
8888;DHT22;4480;52.370;9.748;2023-03-01T11:21:28;5.80;57.80
8888;DHT22;4480;52.370;9.748;2023-03-01T11:23:57;5.90;57.40
8888;DHT22;4480;52.370;9.748;2023-03-01T11:26:28;6.00;57.00
8888;DHT22;4480;52.370;9.748;2023-03-01T11:29:00;6.10;56.60
8888;DHT22;4480;52.370;9.748;2023-03-01T11:31:28;6.00;56.20
8888;DHT22;4480;52.370;9.748;2023-03-01T11:33:59;5.90;55.70
8888;DHT22;4480;52.370;9.748;2023-03-01T11:36:31;5.80;55.50
8888;DHT22;4480;52.370;9.748;2023-03-01T11:39:03;5.80;55.60
8888;DHT22;4480;52.370;9.748;2023-03-01T11:41:36;5.90;55.50
8888;DHT22;4480;52.370;9.748;2023-03-01T11:44:10;5.90;55.30
8888;DHT22;4480;52.370;9.748;2023-03-01T11:50:01;6.10;55.20
8888;DHT22;4480;52.370;9.748;2023-03-01T11:52:39;6.20;54.40
8888;DHT22;4480;52.370;9.748;2023-03-01T11:55:19;6.30;54.30
8888;DHT22;4480;52.370;9.748;2023-03-01T11:58:10;6.40;53.90
8888;DHT22;4480;52.370;9.748;2023-03-01T12:00:59;6.40;53.10
8888;DHT22;4480;52.370;9.748;2023-03-01T12:03:38;6.40;53.10
8888;DHT22;4480;52.370;9.748;2023-03-01T12:06:27;6.30;52.90
8888;DHT22;4480;52.370;9.748;2023-03-01T12:09:06;6.30;52.40
8888;DHT22;4480;52.370;9.748;2023-03-01T12:11:54;6.30;52.00
8888;DHT22;4480;52.370;9.748;2023-03-01T12:14:45;6.20;51.90
8888;DHT22;4480;52.370;9.748;2023-03-01T12:17:41;6.20;52.10
8888;DHT22;4480;52.370;9.748;2023-03-01T12:20:20;6.30;51.60
8888;DHT22;4480;52.370;9.748;2023-03-01T12:23:07;6.30;51.20
8888;DHT22;4480;52.370;9.748;2023-03-01T12:25:45;6.40;51.10
8888;DHT22;4480;52.370;9.748;2023-03-01T12:28:38;6.50;51.00
8888;DHT22;4480;52.370;9.748;2023-03-01T12:31:22;6.70;51.00
8888;DHT22;4480;52.370;9.748;2023-03-01T12:34:03;6.70;50.50
8888;DHT22;4480;52.370;9.748;2023-03-01T12:36:58;6.70;50.50
8888;DHT22;4480;52.370;9.748;2023-03-01T12:39:39;6.80;50.50
8888;DHT22;4480;52.370;9.748;2023-03-01T12:42:16;6.90;50.60
8888;DHT22;4480;52.370;9.748;2023-03-01T12:44:59;6.90;50.10
8888;DHT22;4480;52.370;9.748;2023-03-01T12:47:53;6.80;49.80
8888;DHT22;4480;52.370;9.748;2023-03-01T12:50:23;6.70;49.30
8888;DHT22;4480;52.370;9.748;2023-03-01T12:52:53;6.70;49.50
8888;DHT22;4480;52.370;9.748;2023-03-01T12:55:27;6.60;49.40
8888;DHT22;4480;52.370;9.748;2023-03-01T12:58:02;6.50;49.30
8888;DHT22;4480;52.370;9.748;2023-03-01T13:00:35;6.50;49.30
8888;DHT22;4480;52.370;9.748;2023-03-01T13:03:15;6.50;49.30
8888;DHT22;4480;52.370;9.748;2023-03-01T13:05:57;6.60;49.30
8888;DHT22;4480;52.370;9.748;2023-03-01T13:08:29;6.60;49.00
8888;DHT22;4480;52.370;9.748;2023-03-01T13:11:01;6.60;48.70
8888;DHT22;4480;52.370;9.748;2023-03-01T13:13:29;6.70;48.50
8888;DHT22;4480;52.370;9.748;2023-03-01T13:15:57;6.70;48.20
8888;DHT22;4480;52.370;9.748;2023-03-01T13:18:30;6.70;48.20
8888;DHT22;4480;52.370;9.748;2023-03-01T13:20:59;6.80;48.50
8888;DHT22;4480;52.370;9.748;2023-03-01T13:23:30;6.90;48.60
8888;DHT22;4480;52.370;9.748;2023-03-01T13:26:14;7.00;48.40
8888;DHT22;4480;52.370;9.748;2023-03-01T13:28:47;7.10;48.10
8888;DHT22;4480;52.370;9.748;2023-03-01T13:34:53;7.10;48.00
8888;DHT22;4480;52.370;9.748;2023-03-01T13:37:34;7.10;48.20
8888;DHT22;4480;52.370;9.748;2023-03-01T13:43:29;7.20;48.40
8888;DHT22;4480;52.370;9.748;2023-03-01T13:45:57;7.20;48.40
8888;DHT22;4480;52.370;9.748;2023-03-01T13:48:26;7.20;48.50
8888;DHT22;4480;52.370;9.748;2023-03-01T13:50:59;7.30;48.70
8888;DHT22;4480;52.370;9.748;2023-03-01T13:53:30;7.30;48.70
8888;DHT22;4480;52.370;9.748;2023-03-01T13:56:00;7.30;48.50
8888;DHT22;4480;52.370;9.748;2023-03-01T13:58:29;7.20;48.60
8888;DHT22;4480;52.370;9.748;2023-03-01T14:00:58;7.20;48.90
8888;DHT22;4480;52.370;9.748;2023-03-01T14:03:26;7.30;49.10
8888;DHT22;4480;52.370;9.748;2023-03-01T14:06:04;7.20;49.20
8888;DHT22;4480;52.370;9.748;2023-03-01T14:08:33;7.20;49.10
8888;DHT22;4480;52.370;9.748;2023-03-01T14:17:16;7.00;49.20
8888;DHT22;4480;52.370;9.748;2023-03-01T14:19:48;6.90;49.00
8888;DHT22;4480;52.370;9.748;2023-03-01T14:22:24;6.90;49.00
8888;DHT22;4480;52.370;9.748;2023-03-01T14:24:56;6.80;49.00
8888;DHT22;4480;52.370;9.748;2023-03-01T14:27:26;6.90;49.10
8888;DHT22;4480;52.370;9.748;2023-03-01T14:29:57;6.90;49.10
8888;DHT22;4480;52.370;9.748;2023-03-01T14:32:26;6.90;48.90
8888;DHT22;4480;52.370;9.748;2023-03-01T14:34:53;6.90;48.90
8888;DHT22;4480;52.370;9.748;2023-03-01T14:37:25;6.90;48.70
8888;DHT22;4480;52.370;9.748;2023-03-01T14:39:52;6.90;48.30
8888;DHT22;4480;52.370;9.748;2023-03-01T14:42:21;6.90;48.00
8888;DHT22;4480;52.370;9.748;2023-03-01T14:44:50;7.00;47.90
8888;DHT22;4480;52.370;9.748;2023-03-01T14:47:25;7.00;47.70
8888;DHT22;4480;52.370;9.748;2023-03-01T14:49:57;7.10;47.80
8888;DHT22;4480;52.370;9.748;2023-03-01T14:52:31;7.20;47.70
8888;DHT22;4480;52.370;9.748;2023-03-01T14:55:02;7.20;47.50
8888;DHT22;4480;52.370;9.748;2023-03-01T14:57:29;7.20;47.90
8888;DHT22;4480;52.370;9.748;2023-03-01T14:59:58;7.20;47.30
8888;DHT22;4480;52.370;9.748;2023-03-01T15:02:29;7.20;47.20
8888;DHT22;4480;52.370;9.748;2023-03-01T15:04:59;7.20;47.00
8888;DHT22;4480;52.370;9.748;2023-03-01T15:07:31;7.20;46.80
8888;DHT22;4480;52.370;9.748;2023-03-01T15:09:59;7.20;46.60
8888;DHT22;4480;52.370;9.748;2023-03-01T15:12:36;7.20;46.60
8888;DHT22;4480;52.370;9.748;2023-03-01T15:15:22;7.10;46.30
8888;DHT22;4480;52.370;9.748;2023-03-01T15:17:55;7.00;45.80
8888;DHT22;4480;52.370;9.748;2023-03-01T15:20:24;7.00;45.90
8888;DHT22;4480;52.370;9.748;2023-03-01T15:22:55;7.00;45.90
8888;DHT22;4480;52.370;9.748;2023-03-01T15:25:24;7.10;46.00
8888;DHT22;4480;52.370;9.748;2023-03-01T15:27:53;7.10;45.80
8888;DHT22;4480;52.370;9.748;2023-03-01T15:30:22;7.10;45.80
8888;DHT22;4480;52.370;9.748;2023-03-01T15:33:16;7.10;45.60
8888;DHT22;4480;52.370;9.748;2023-03-01T15:35:46;7.00;45.30
8888;DHT22;4480;52.370;9.748;2023-03-01T15:38:28;7.00;45.10
8888;DHT22;4480;52.370;9.748;2023-03-01T15:40:55;6.90;45.10
8888;DHT22;4480;52.370;9.748;2023-03-01T15:43:45;6.90;45.10
8888;DHT22;4480;52.370;9.748;2023-03-01T15:46:17;6.90;45.20
8888;DHT22;4480;52.370;9.748;2023-03-01T15:48:46;6.90;45.20
8888;DHT22;4480;52.370;9.748;2023-03-01T15:51:15;6.90;45.20
8888;DHT22;4480;52.370;9.748;2023-03-01T15:53:49;6.90;45.10
8888;DHT22;4480;52.370;9.748;2023-03-01T15:56:16;6.90;45.00
8888;DHT22;4480;52.370;9.748;2023-03-01T15:58:43;6.90;45.00
8888;DHT22;4480;52.370;9.748;2023-03-01T16:01:12;6.80;44.80
8888;DHT22;4480;52.370;9.748;2023-03-01T16:03:39;6.80;44.80
8888;DHT22;4480;52.370;9.748;2023-03-01T16:06:08;6.80;44.90
8888;DHT22;4480;52.370;9.748;2023-03-01T16:08:35;6.70;44.80
8888;DHT22;4480;52.370;9.748;2023-03-01T16:11:04;6.60;44.80
8888;DHT22;4480;52.370;9.748;2023-03-01T16:13:35;6.60;44.90
8888;DHT22;4480;52.370;9.748;2023-03-01T16:16:02;6.50;45.10
8888;DHT22;4480;52.370;9.748;2023-03-01T16:18:29;6.50;45.40
8888;DHT22;4480;52.370;9.748;2023-03-01T16:20:56;6.40;45.40
8888;DHT22;4480;52.370;9.748;2023-03-01T16:23:23;6.40;45.60
8888;DHT22;4480;52.370;9.748;2023-03-01T16:25:50;6.40;45.90
8888;DHT22;4480;52.370;9.748;2023-03-01T16:28:18;6.40;46.30
8888;DHT22;4480;52.370;9.748;2023-03-01T16:30:46;6.30;46.50
8888;DHT22;4480;52.370;9.748;2023-03-01T16:33:14;6.20;46.70
8888;DHT22;4480;52.370;9.748;2023-03-01T16:35:41;6.20;46.90
8888;DHT22;4480;52.370;9.748;2023-03-01T16:38:09;6.10;47.10
8888;DHT22;4480;52.370;9.748;2023-03-01T16:40:36;6.10;47.40
8888;DHT22;4480;52.370;9.748;2023-03-01T16:43:03;6.00;47.60
8888;DHT22;4480;52.370;9.748;2023-03-01T16:45:34;5.90;47.80
8888;DHT22;4480;52.370;9.748;2023-03-01T16:48:02;5.90;48.10
8888;DHT22;4480;52.370;9.748;2023-03-01T16:50:28;5.80;48.30